Time;durP1;ratioP1;P1;durP2;ratioP2;P2;SDS_P1;SDS_P2;PMS_P1;PMS_P2;Temp;Humidity;BMP_temperature;BMP_pressure;BME280_temperature;BME280_humidity;BME280_pressure;Samples;Min_cycle;Max_cycle;Signal;HPM_P1;HPM_P2
2024/03/03 00:01:59;;;;;;;47.17;22.87;;;9.40;80.90;;;;;;5007315;28;20484;-71
2024/03/03 00:04:24;;;;;;;55.37;26.20;;;9.40;80.80;;;;;;5009658;28;20413;-72
2024/03/03 00:06:50;;;;;;;48.93;21.87;;;9.30;80.60;;;;;;5009917;28;20429;-71
2024/03/03 00:09:17;;;;;;;50.40;23.60;;;9.20;80.80;;;;;;5010357;28;20547;-72
2024/03/03 00:11:42;;;;;;;49.23;23.30;;;9.20;80.90;;;;;;5007332;28;20224;-74
2024/03/03 00:14:08;;;;;;;51.00;24.13;;;9.20;80.90;;;;;;5010159;28;20433;-72
2024/03/03 00:16:33;;;;;;;54.40;24.33;;;9.10;80.90;;;;;;5009799;28;20186;-71
2024/03/03 00:18:59;;;;;;;48.20;23.33;;;9.10;81.10;;;;;;5010652;28;20276;-71
2024/03/03 00:21:25;;;;;;;55.63;23.70;;;9.00;81.40;;;;;;5011604;28;20205;-70
2024/03/03 00:23:51;;;;;;;51.20;24.77;;;9.10;81.40;;;;;;5013611;28;20185;-70
2024/03/03 00:26:17;;;;;;;50.93;25.90;;;9.00;81.50;;;;;;5004332;28;20450;-70
2024/03/03 00:28:42;;;;;;;50.30;23.23;;;9.00;81.50;;;;;;5012887;28;20291;-71
2024/03/03 00:31:08;;;;;;;61.50;23.60;;;8.90;81.70;;;;;;5010182;28;21263;-71
2024/03/03 00:33:34;;;;;;;48.10;23.33;;;8.90;81.80;;;;;;4996305;28;20182;-73
2024/03/03 00:35:59;;;;;;;60.07;25.07;;;8.90;81.90;;;;;;5010014;28;20178;-71
2024/03/03 00:38:25;;;;;;;50.37;23.07;;;9.00;81.90;;;;;;5010113;28;20193;-70
2024/03/03 00:40:51;;;;;;;62.87;27.10;;;8.90;81.90;;;;;;5007399;28;20586;-71
2024/03/03 00:43:17;;;;;;;62.30;26.40;;;8.90;81.90;;;;;;4995290;28;20281;-73
2024/03/03 00:45:42;;;;;;;55.17;26.00;;;8.90;82.10;;;;;;5009842;28;20571;-71
2024/03/03 00:48:08;;;;;;;54.07;24.80;;;8.80;82.10;;;;;;5007006;28;20186;-72
2024/03/03 00:50:34;;;;;;;49.53;22.93;;;8.80;82.40;;;;;;5007934;28;20240;-71
2024/03/03 00:53:00;;;;;;;47.43;22.07;;;8.80;82.70;;;;;;5015252;28;20213;-71
2024/03/03 00:55:25;;;;;;;47.27;20.93;;;8.90;82.70;;;;;;5013479;28;20203;-73
2024/03/03 00:57:52;;;;;;;44.27;21.73;;;9.00;82.70;;;;;;5013914;28;20419;-71
2024/03/03 01:00:18;;;;;;;46.43;23.03;;;9.10;82.20;;;;;;5013955;28;20251;-71
2024/03/03 01:02:44;;;;;;;49.97;23.10;;;9.10;81.70;;;;;;5011454;28;20437;-71
2024/03/03 01:05:11;;;;;;;59.57;23.97;;;9.10;81.90;;;;;;5013401;28;20506;-72
2024/03/03 01:07:38;;;;;;;60.43;25.87;;;9.00;81.90;;;;;;5014893;28;20205;-71
2024/03/03 01:10:05;;;;;;;59.50;25.53;;;9.00;82.10;;;;;;5013541;28;20433;-72
2024/03/03 01:12:31;;;;;;;51.37;23.77;;;8.90;81.90;;;;;;5011219;28;20472;-71
2024/03/03 01:14:56;;;;;;;52.03;23.33;;;8.80;82.20;;;;;;5013351;28;20949;-72
2024/03/03 01:17:22;;;;;;;54.43;24.53;;;8.90;82.50;;;;;;4999535;28;20193;-71
2024/03/03 01:19:48;;;;;;;49.57;22.30;;;8.90;82.50;;;;;;5013434;28;20178;-72
2024/03/03 01:22:14;;;;;;;46.63;21.67;;;9.00;82.40;;;;;;5010308;28;20237;-71
2024/03/03 01:24:40;;;;;;;55.27;23.70;;;9.10;82.10;;;;;;5012840;28;20452;-72
2024/03/03 01:27:06;;;;;;;55.00;24.57;;;9.00;82.10;;;;;;5012949;28;20269;-72
2024/03/03 01:29:32;;;;;;;45.73;22.70;;;8.90;81.90;;;;;;5013140;28;20505;-73
2024/03/03 01:31:58;;;;;;;58.63;23.93;;;8.90;82.10;;;;;;5010099;28;20210;-71
2024/03/03 01:34:25;;;;;;;65.23;26.07;;;8.90;82.20;;;;;;5013017;28;20197;-71
2024/03/03 01:36:52;;;;;;;49.97;23.20;;;8.80;82.20;;;;;;5012758;28;20256;-71
2024/03/03 01:39:17;;;;;;;65.87;26.80;;;8.80;82.40;;;;;;5013422;28;20456;-72
2024/03/03 01:41:46;;;;;;;59.60;25.53;;;8.70;82.50;;;;;;5012471;28;20487;-73
2024/03/03 01:44:12;;;;;;;52.43;25.47;;;8.70;82.70;;;;;;5009905;28;20552;-71
2024/03/03 01:46:38;;;;;;;47.90;22.13;;;8.70;82.80;;;;;;5015472;28;20429;-71
2024/03/03 01:49:09;;;;;;;55.67;22.97;;;8.70;82.80;;;;;;5016667;28;20524;-72
2024/03/03 01:51:35;;;;;;;49.50;24.70;;;8.80;82.70;;;;;;5012380;28;20473;-71
2024/03/03 01:54:01;;;;;;;55.77;25.10;;;8.60;82.40;;;;;;5016540;28;20433;-71
2024/03/03 01:56:29;;;;;;;66.03;24.10;;;8.50;82.80;;;;;;5015415;28;20491;-72
2024/03/03 01:58:56;;;;;;;53.07;24.43;;;8.40;83.00;;;;;;5013780;28;20572;-70
2024/03/03 02:01:25;;;;;;;59.87;25.60;;;8.40;83.40;;;;;;5010850;28;20464;-69
2024/03/03 02:03:51;;;;;;;59.20;25.73;;;8.40;83.40;;;;;;5013098;28;20429;-72
2024/03/03 02:06:19;;;;;;;58.60;26.33;;;8.40;83.40;;;;;;5012994;28;20431;-71
2024/03/03 02:08:47;;;;;;;59.80;25.20;;;8.30;83.30;;;;;;5012912;28;20261;-72
2024/03/03 02:11:12;;;;;;;61.40;27.07;;;8.20;83.60;;;;;;5010346;28;20911;-70
2024/03/03 02:13:38;;;;;;;55.30;26.03;;;8.10;84.00;;;;;;5012765;28;20504;-70
2024/03/03 02:16:04;;;;;;;60.80;26.30;;;8.00;84.10;;;;;;5012200;28;20186;-70
2024/03/03 02:18:29;;;;;;;55.10;24.70;;;8.00;84.30;;;;;;5012683;28;20490;-70
2024/03/03 02:20:55;;;;;;;60.97;25.87;;;8.00;84.60;;;;;;5009094;28;20205;-71
2024/03/03 02:23:20;;;;;;;51.37;22.47;;;8.00;84.60;;;;;;5011807;28;20213;-70
2024/03/03 02:25:46;;;;;;;60.87;25.80;;;8.00;84.70;;;;;;5008069;28;20194;-70
2024/03/03 02:28:13;;;;;;;60.37;26.50;;;8.00;84.70;;;;;;5011539;28;20774;-71
2024/03/03 02:30:39;;;;;;;57.70;26.60;;;7.90;84.70;;;;;;5008955;28;20280;-71
2024/03/03 02:33:04;;;;;;;65.87;26.50;;;7.90;84.70;;;;;;5011327;28;20468;-71
2024/03/03 02:35:30;;;;;;;58.93;25.37;;;7.80;84.90;;;;;;5010880;28;20182;-69
2024/03/03 02:37:56;;;;;;;62.33;25.93;;;7.80;85.00;;;;;;5013100;28;20194;-71
2024/03/03 02:40:21;;;;;;;58.30;26.47;;;7.70;85.00;;;;;;5010054;28;20269;-69
2024/03/03 02:42:47;;;;;;;55.93;24.33;;;7.80;85.20;;;;;;5010436;28;20197;-72
2024/03/03 02:45:12;;;;;;;57.63;24.93;;;7.80;85.00;;;;;;5010345;28;20181;-72
2024/03/03 02:47:39;;;;;;;59.30;25.83;;;7.80;85.20;;;;;;5012976;28;20181;-71
2024/03/03 02:50:05;;;;;;;74.50;26.50;;;7.70;85.00;;;;;;5011254;28;20194;-68
2024/03/03 02:52:30;;;;;;;60.50;25.50;;;7.70;85.20;;;;;;4991273;28;20484;-71
2024/03/03 02:54:56;;;;;;;56.23;27.47;;;7.60;85.30;;;;;;5011140;28;20431;-70
2024/03/03 02:57:21;;;;;;;55.47;24.80;;;7.70;85.50;;;;;;5011416;28;20705;-71
2024/03/03 02:59:48;;;;;;;61.80;23.40;;;7.70;85.50;;;;;;5011254;28;20608;-73
2024/03/03 03:02:14;;;;;;;57.87;24.30;;;7.70;85.50;;;;;;5008791;28;20208;-71
2024/03/03 03:04:39;;;;;;;66.93;27.83;;;7.70;85.30;;;;;;5010912;28;20421;-71
2024/03/03 03:07:05;;;;;;;65.90;26.70;;;7.60;85.30;;;;;;5010555;28;20185;-70
2024/03/03 03:09:31;;;;;;;56.97;26.63;;;7.50;85.50;;;;;;5011188;28;20185;-71
2024/03/03 03:11:56;;;;;;;68.17;27.47;;;7.50;85.60;;;;;;5008770;28;20249;-70
2024/03/03 03:14:24;;;;;;;61.17;26.87;;;7.50;85.70;;;;;;5009717;28;20729;-71
2024/03/03 03:16:49;;;;;;;73.03;27.40;;;7.40;85.70;;;;;;5010265;28;20539;-71
2024/03/03 03:19:15;;;;;;;62.97;28.07;;;7.50;86.00;;;;;;5010823;28;20429;-71
2024/03/03 03:21:41;;;;;;;63.43;26.93;;;7.50;86.00;;;;;;5008422;28;20217;-70
2024/03/03 03:24:06;;;;;;;61.33;28.07;;;7.40;85.90;;;;;;5010708;28;20181;-72
2024/03/03 03:26:32;;;;;;;69.53;27.47;;;7.30;85.90;;;;;;5010977;28;20841;-70
2024/03/03 03:28:58;;;;;;;59.97;24.57;;;7.30;86.20;;;;;;5016860;28;20174;-71
2024/03/03 03:31:24;;;;;;;60.23;26.07;;;7.30;86.30;;;;;;5008418;28;20205;-70
2024/03/03 03:33:50;;;;;;;59.80;26.20;;;7.30;86.30;;;;;;5010005;28;20440;-70
2024/03/03 03:36:17;;;;;;;61.00;23.63;;;7.40;86.30;;;;;;5010045;28;20182;-71
2024/03/03 03:38:43;;;;;;;63.90;28.40;;;7.40;86.20;;;;;;5010428;28;20186;-71
2024/03/03 03:41:08;;;;;;;57.23;24.63;;;7.50;86.00;;;;;;5002884;28;20473;-73
2024/03/03 03:43:34;;;;;;;69.93;28.73;;;7.50;86.00;;;;;;5009420;28;20177;-72
2024/03/03 03:46:00;;;;;;;71.90;28.10;;;7.40;85.70;;;;;;5010252;28;20182;-71
2024/03/03 03:48:25;;;;;;;63.33;23.90;;;7.30;85.90;;;;;;5010712;28;20251;-71
2024/03/03 03:50:51;;;;;;;67.70;27.70;;;7.20;86.20;;;;;;5008844;28;20232;-69
2024/03/03 03:53:16;;;;;;;61.00;27.03;;;7.20;86.30;;;;;;5010345;28;20244;-70
2024/03/03 03:55:42;;;;;;;54.80;23.70;;;7.20;86.20;;;;;;5010776;28;20197;-71
2024/03/03 03:58:08;;;;;;;64.03;29.90;;;7.20;86.30;;;;;;5010079;28;20264;-71
2024/03/03 04:00:33;;;;;;;68.43;29.20;;;7.20;86.30;;;;;;5008017;28;20208;-70
2024/03/03 04:02:59;;;;;;;68.47;26.27;;;7.10;86.30;;;;;;5009993;28;20178;-70
2024/03/03 04:05:25;;;;;;;62.60;26.27;;;7.10;86.50;;;;;;5009381;28;20666;-71
2024/03/03 04:07:50;;;;;;;66.47;28.47;;;7.10;86.50;;;;;;5010265;28;20251;-70
2024/03/03 04:10:18;;;;;;;64.93;25.80;;;7.00;86.50;;;;;;5010850;28;20924;-70
2024/03/03 04:12:44;;;;;;;66.37;30.40;;;7.00;86.50;;;;;;5008288;28;20224;-70
2024/03/03 04:15:12;;;;;;;69.87;29.70;;;6.90;86.60;;;;;;5009450;28;20783;-75
2024/03/03 04:17:38;;;;;;;65.23;26.43;;;6.90;86.60;;;;;;5010101;28;20466;-70
2024/03/03 04:20:05;;;;;;;72.50;29.30;;;6.90;86.60;;;;;;5009925;28;20416;-70
2024/03/03 04:22:31;;;;;;;76.60;30.47;;;6.90;86.80;;;;;;5006025;28;20343;-71
2024/03/03 04:24:56;;;;;;;67.80;26.70;;;6.80;86.80;;;;;;5009209;28;20460;-71
2024/03/03 04:27:22;;;;;;;67.60;28.60;;;6.80;86.90;;;;;;5012967;28;20690;-72
2024/03/03 04:29:48;;;;;;;72.60;29.47;;;6.90;86.80;;;;;;5014134;28;20182;-72
2024/03/03 04:32:14;;;;;;;67.50;28.50;;;6.80;86.60;;;;;;5011113;28;20253;-69
2024/03/03 04:34:40;;;;;;;70.63;27.73;;;6.80;86.80;;;;;;5013877;28;20432;-70
2024/03/03 04:37:09;;;;;;;63.33;26.10;;;6.90;86.80;;;;;;5013385;28;20428;-71
2024/03/03 04:39:35;;;;;;;65.83;28.20;;;6.90;86.80;;;;;;5015054;28;21019;-68
2024/03/03 04:42:02;;;;;;;61.17;25.30;;;6.90;86.60;;;;;;5010502;28;20594;-72
2024/03/03 04:44:28;;;;;;;65.70;28.43;;;7.00;86.60;;;;;;5013513;28;20193;-69
2024/03/03 04:46:54;;;;;;;56.00;25.60;;;7.00;86.50;;;;;;5013478;28;20424;-70
2024/03/03 04:49:19;;;;;;;53.47;24.83;;;6.90;86.30;;;;;;5013791;28;20452;-71
2024/03/03 04:51:45;;;;;;;72.57;28.07;;;7.00;86.30;;;;;;5010614;28;20698;-71
2024/03/03 04:54:10;;;;;;;63.10;27.40;;;6.90;86.00;;;;;;5013727;28;20539;-71
2024/03/03 04:56:36;;;;;;;72.83;31.00;;;6.80;86.20;;;;;;5013327;28;20208;-70
2024/03/03 04:59:01;;;;;;;66.70;27.27;;;6.80;86.30;;;;;;5014171;28;20288;-71
2024/03/03 05:01:27;;;;;;;59.00;25.93;;;6.80;86.50;;;;;;4996105;28;20202;-72
2024/03/03 05:03:52;;;;;;;60.00;26.33;;;6.80;86.50;;;;;;5013169;28;20182;-71
2024/03/03 05:06:18;;;;;;;64.07;26.37;;;6.80;86.60;;;;;;5013259;28;20182;-71
2024/03/03 05:08:44;;;;;;;63.70;27.60;;;6.90;86.60;;;;;;5012975;28;20210;-70
2024/03/03 05:11:10;;;;;;;68.73;29.20;;;6.90;86.50;;;;;;5010222;28;20216;-71
2024/03/03 05:13:35;;;;;;;65.63;26.13;;;6.90;86.30;;;;;;5012720;28;20574;-71
2024/03/03 05:16:02;;;;;;;67.13;26.37;;;6.80;86.20;;;;;;5012689;28;20429;-71
2024/03/03 05:18:27;;;;;;;74.70;29.20;;;6.80;86.20;;;;;;5012623;28;20186;-71
2024/03/03 05:20:53;;;;;;;68.17;28.30;;;6.70;86.30;;;;;;5010103;28;20589;-71
2024/03/03 05:23:19;;;;;;;71.23;28.50;;;6.60;86.50;;;;;;5012524;28;20181;-70
2024/03/03 05:25:44;;;;;;;63.57;26.20;;;6.60;86.60;;;;;;5012488;28;20708;-71
2024/03/03 05:28:10;;;;;;;70.80;26.90;;;6.60;86.90;;;;;;5000040;28;20178;-69
2024/03/03 05:30:38;;;;;;;59.03;25.80;;;6.70;87.00;;;;;;5010159;28;20206;-70
2024/03/03 05:33:04;;;;;;;63.57;27.73;;;6.70;87.00;;;;;;5011789;28;20748;-70
2024/03/03 05:35:30;;;;;;;55.87;25.50;;;6.80;87.00;;;;;;5012510;28;20428;-70
2024/03/03 05:37:56;;;;;;;67.97;28.07;;;6.80;86.90;;;;;;5012434;28;20440;-71
2024/03/03 05:40:21;;;;;;;70.43;28.10;;;6.70;86.80;;;;;;5011558;28;20260;-69
2024/03/03 05:42:47;;;;;;;73.87;30.60;;;6.60;86.80;;;;;;5011351;28;20182;-71
2024/03/03 05:45:12;;;;;;;63.33;26.40;;;6.60;86.90;;;;;;5012318;28;20189;-71
2024/03/03 05:47:38;;;;;;;64.83;28.63;;;6.60;86.90;;;;;;5014429;28;20190;-70
2024/03/03 05:50:04;;;;;;;67.37;27.53;;;6.60;87.00;;;;;;5012969;28;20210;-72
2024/03/03 05:52:30;;;;;;;69.17;30.23;;;6.60;87.00;;;;;;5009786;28;20217;-71
2024/03/03 05:54:56;;;;;;;67.03;26.57;;;6.50;87.00;;;;;;5012206;28;20421;-71
2024/03/03 05:57:21;;;;;;;68.97;29.70;;;6.50;87.00;;;;;;5012830;28;20562;-71
2024/03/03 05:59:47;;;;;;;64.33;28.37;;;6.50;87.10;;;;;;5006452;28;20417;-70
2024/03/03 06:02:12;;;;;;;68.93;27.80;;;6.50;87.10;;;;;;5009388;28;20206;-71
2024/03/03 06:04:38;;;;;;;68.23;27.33;;;6.50;87.10;;;;;;5011621;28;20200;-70
2024/03/03 06:07:04;;;;;;;59.63;26.47;;;6.50;87.10;;;;;;5012234;28;20268;-71
2024/03/03 06:09:30;;;;;;;59.03;25.80;;;6.50;87.10;;;;;;5011950;28;20947;-70
2024/03/03 06:11:59;;;;;;;60.77;25.70;;;6.50;87.30;;;;;;5009096;28;20476;-71
2024/03/03 06:14:24;;;;;;;68.30;27.10;;;6.50;87.10;;;;;;5011851;28;20822;-68
2024/03/03 06:16:50;;;;;;;57.43;26.07;;;6.60;87.30;;;;;;4997369;28;20500;-71
2024/03/03 06:19:15;;;;;;;54.47;24.27;;;6.60;87.00;;;;;;5012522;28;20186;-71
2024/03/03 06:21:41;;;;;;;56.10;23.93;;;6.50;86.90;;;;;;5009764;28;20214;-71
2024/03/03 06:24:07;;;;;;;68.87;25.07;;;6.60;87.00;;;;;;5012678;28;20421;-70
2024/03/03 06:26:34;;;;;;;57.33;22.70;;;6.60;86.90;;;;;;5012509;28;20669;-70
2024/03/03 06:29:00;;;;;;;59.80;26.57;;;6.70;86.80;;;;;;5012370;28;21137;-71
2024/03/03 06:31:26;;;;;;;65.53;27.73;;;6.70;86.80;;;;;;5009153;28;20807;-71
2024/03/03 06:33:52;;;;;;;52.37;25.13;;;6.70;86.60;;;;;;5011698;28;20424;-71
2024/03/03 06:36:21;;;;;;;62.93;26.80;;;6.70;86.50;;;;;;5011499;28;20422;-73
2024/03/03 06:38:47;;;;;;;53.20;23.57;;;6.70;86.50;;;;;;5011309;28;20188;-72
2024/03/03 06:41:15;;;;;;;63.30;26.23;;;6.80;86.60;;;;;;5008851;28;20459;-72
2024/03/03 06:43:44;;;;;;;59.93;25.43;;;7.00;86.50;;;;;;5010110;28;20999;-71
2024/03/03 06:46:10;;;;;;;57.23;24.63;;;7.10;86.00;;;;;;5011731;28;20417;-71
2024/03/03 06:48:39;;;;;;;51.53;24.27;;;7.20;85.60;;;;;;5010097;28;20429;-71
2024/03/03 06:51:06;;;;;;;53.43;23.87;;;7.20;85.60;;;;;;5010772;28;20456;-70
2024/03/03 06:53:35;;;;;;;54.30;24.10;;;7.30;85.50;;;;;;5011708;28;20559;-70
2024/03/03 06:56:01;;;;;;;63.90;25.20;;;7.40;85.30;;;;;;5011090;28;20810;-72
2024/03/03 06:58:27;;;;;;;55.67;24.57;;;7.50;85.20;;;;;;5011886;28;20421;-70
2024/03/03 07:00:52;;;;;;;61.73;25.83;;;7.50;84.70;;;;;;5008674;28;20209;-72
2024/03/03 07:05:52;;;;;;;53.37;23.63;;;7.70;84.70;;;;;;5010857;28;20597;-71
2024/03/03 07:08:18;;;;;;;56.07;23.83;;;7.80;84.40;;;;;;5011836;28;20416;-72
2024/03/03 07:10:43;;;;;;;54.00;23.23;;;7.90;84.10;;;;;;5008236;28;20206;-71
2024/03/03 07:13:09;;;;;;;53.73;23.03;;;8.00;83.60;;;;;;5010713;28;20205;-72
2024/03/03 07:15:35;;;;;;;56.43;25.80;;;8.10;83.10;;;;;;5011228;28;20189;-70
2024/03/03 07:18:01;;;;;;;52.50;23.23;;;8.20;82.50;;;;;;5011842;28;20432;-70
2024/03/03 07:20:27;;;;;;;55.40;23.73;;;8.20;82.20;;;;;;5009339;28;20428;-69
2024/03/03 07:22:52;;;;;;;61.17;26.50;;;8.20;82.10;;;;;;5010198;28;20551;-71
2024/03/03 07:25:18;;;;;;;71.50;29.73;;;8.20;82.10;;;;;;5011934;28;20182;-73
2024/03/03 07:27:43;;;;;;;69.80;28.40;;;7.90;82.50;;;;;;5014883;28;20653;-72
2024/03/03 07:30:10;;;;;;;61.30;27.23;;;7.60;83.60;;;;;;5013680;28;20600;-71
2024/03/03 07:32:38;;;;;;;74.30;29.63;;;7.50;84.60;;;;;;5005381;28;20726;-71
2024/03/03 07:35:04;;;;;;;62.87;28.17;;;7.60;84.90;;;;;;5014083;28;20424;-72
2024/03/03 07:37:29;;;;;;;55.00;25.10;;;7.60;84.90;;;;;;5017558;28;21145;-74
2024/03/03 07:39:55;;;;;;;58.60;25.73;;;7.60;84.60;;;;;;5017408;28;20425;-71
2024/03/03 07:42:20;;;;;;;70.00;28.80;;;7.70;84.60;;;;;;5012854;28;20210;-71
2024/03/03 07:44:46;;;;;;;71.17;30.37;;;7.70;84.30;;;;;;5012769;28;20196;-71
2024/03/03 07:47:12;;;;;;;64.20;28.47;;;7.50;84.30;;;;;;5014387;28;20261;-73
2024/03/03 07:49:37;;;;;;;64.37;27.70;;;7.60;84.60;;;;;;5014027;28;20603;-71
2024/03/03 07:52:04;;;;;;;55.80;25.63;;;7.70;84.70;;;;;;5011485;28;20234;-71
2024/03/03 07:54:29;;;;;;;61.80;26.07;;;7.90;84.60;;;;;;5012642;28;20487;-69
2024/03/03 07:56:55;;;;;;;56.37;27.40;;;8.10;84.30;;;;;;5012497;28;20228;-73
2024/03/03 07:59:20;;;;;;;56.77;24.93;;;8.20;83.60;;;;;;5013478;28;20178;-71
2024/03/03 08:01:47;;;;;;;61.13;27.07;;;8.20;83.10;;;;;;5015737;28;20296;-71
2024/03/03 08:04:15;;;;;;;63.20;26.27;;;8.20;82.70;;;;;;5023800;28;20181;-72
2024/03/03 08:06:41;;;;;;;54.87;25.67;;;8.00;82.20;;;;;;5010934;28;20464;-71
2024/03/03 08:09:06;;;;;;;58.80;25.10;;;8.10;82.80;;;;;;5010816;28;20428;-71
2024/03/03 08:11:33;;;;;;;65.40;28.57;;;8.40;82.80;;;;;;5007394;28;20995;-71
2024/03/03 08:13:59;;;;;;;55.50;24.27;;;8.60;82.20;;;;;;5009780;28;20565;-72
2024/03/03 08:16:25;;;;;;;55.43;25.40;;;8.70;81.70;;;;;;5009775;28;20436;-72
2024/03/03 08:18:51;;;;;;;57.23;25.27;;;8.80;80.90;;;;;;5010569;28;20413;-72
2024/03/03 08:21:16;;;;;;;56.90;25.70;;;8.80;80.60;;;;;;5008636;28;20202;-72
2024/03/03 08:23:43;;;;;;;54.63;24.90;;;9.00;80.60;;;;;;5009674;28;20285;-71
2024/03/03 08:26:11;;;;;;;51.70;24.30;;;9.10;80.00;;;;;;5009976;28;20193;-73
2024/03/03 08:28:37;;;;;;;60.30;27.30;;;9.10;79.20;;;;;;5009838;28;20995;-70
2024/03/03 08:31:02;;;;;;;58.27;25.40;;;9.30;79.30;;;;;;5006809;28;20535;-71
2024/03/03 08:33:28;;;;;;;57.50;26.67;;;9.20;79.00;;;;;;5009042;28;20592;-72
2024/03/03 08:35:53;;;;;;;49.07;22.67;;;9.30;78.60;;;;;;5009687;28;20256;-71
2024/03/03 08:38:19;;;;;;;51.40;23.30;;;9.50;78.60;;;;;;5010214;28;20189;-72
2024/03/03 08:40:45;;;;;;;51.33;23.53;;;9.60;77.80;;;;;;5007578;28;20209;-72
2024/03/03 08:43:10;;;;;;;52.07;24.50;;;9.50;77.40;;;;;;5009472;28;20240;-71
2024/03/03 08:45:36;;;;;;;52.23;23.40;;;9.40;77.40;;;;;;5009320;28;20186;-70
2024/03/03 08:48:02;;;;;;;57.90;24.40;;;9.60;77.70;;;;;;5010023;28;20539;-69
2024/03/03 08:50:28;;;;;;;50.17;23.30;;;9.70;77.30;;;;;;5007517;28;20561;-72
2024/03/03 08:52:53;;;;;;;48.57;22.80;;;9.90;76.70;;;;;;5008525;28;20319;-72
2024/03/03 08:55:19;;;;;;;47.67;23.87;;;9.90;76.40;;;;;;5009608;28;20202;-71
2024/03/03 08:57:45;;;;;;;54.70;24.83;;;9.80;75.90;;;;;;5009715;28;20218;-72
2024/03/03 09:00:12;;;;;;;41.47;21.27;;;9.50;76.40;;;;;;5009412;28;20556;-71
2024/03/03 09:02:39;;;;;;;49.47;22.27;;;9.60;77.30;;;;;;5006527;28;20189;-73
2024/03/03 09:05:05;;;;;;;43.90;21.67;;;9.80;77.00;;;;;;5009483;28;20773;-71
2024/03/03 09:07:31;;;;;;;49.10;25.20;;;9.80;76.20;;;;;;5009408;28;20555;-73
2024/03/03 09:09:57;;;;;;;49.77;23.67;;;9.90;76.10;;;;;;5009640;28;21157;-72
2024/03/03 09:12:22;;;;;;;46.83;21.97;;;9.90;76.10;;;;;;5008224;28;20260;-69
2024/03/03 09:14:48;;;;;;;52.60;23.13;;;10.00;76.20;;;;;;5012430;28;20185;-73
2024/03/03 09:17:13;;;;;;;48.23;23.40;;;10.10;75.80;;;;;;5013223;28;20206;-73
2024/03/03 09:19:39;;;;;;;46.57;22.73;;;10.20;75.20;;;;;;5012037;28;20281;-71
2024/03/03 09:22:05;;;;;;;49.10;22.10;;;9.80;75.80;;;;;;5010398;28;20210;-72
2024/03/03 09:24:30;;;;;;;48.87;23.40;;;9.80;75.90;;;;;;5012385;28;20607;-71
2024/03/03 09:26:56;;;;;;;57.80;25.10;;;9.90;76.10;;;;;;5014319;28;20250;-72
2024/03/03 09:29:22;;;;;;;54.00;23.03;;;9.80;75.40;;;;;;5015200;28;20174;-70
2024/03/03 09:31:47;;;;;;;52.30;23.40;;;9.60;76.50;;;;;;5011020;28;20267;-72
2024/03/03 09:34:13;;;;;;;50.13;24.57;;;9.70;77.00;;;;;;5004404;28;20216;-71
2024/03/03 09:36:42;;;;;;;52.43;24.63;;;10.00;76.40;;;;;;5012335;28;20178;-71
2024/03/03 09:39:07;;;;;;;46.10;22.20;;;9.90;75.80;;;;;;5012677;28;20662;-70
2024/03/03 09:41:33;;;;;;;50.40;23.77;;;10.00;75.80;;;;;;5004117;28;20457;-72
2024/03/03 09:44:07;;;;;;;49.60;23.40;;;10.10;75.50;;;;;;5012219;28;20193;-71
2024/03/03 09:46:35;;;;;;;42.73;21.43;;;10.40;75.10;;;;;;5011972;28;20267;-72
2024/03/03 09:49:01;;;;;;;46.70;22.20;;;10.70;74.20;;;;;;5012533;28;20449;-71
2024/03/03 09:51:28;;;;;;;49.37;21.50;;;10.90;72.70;;;;;;5009316;28;20464;-72
2024/03/03 09:53:55;;;;;;;43.17;22.20;;;10.90;72.10;;;;;;5012447;28;20426;-72
2024/03/03 09:56:22;;;;;;;45.13;20.57;;;11.00;72.40;;;;;;5014888;28;20424;-71
2024/03/03 09:58:48;;;;;;;43.33;21.20;;;11.10;72.30;;;;;;5012783;28;20419;-73
2024/03/03 10:01:14;;;;;;;48.90;23.70;;;11.30;71.70;;;;;;5012348;28;20460;-71
2024/03/03 10:03:42;;;;;;;48.63;22.13;;;11.40;71.10;;;;;;5011983;28;20674;-71
2024/03/03 10:06:10;;;;;;;46.63;22.07;;;11.70;71.00;;;;;;5011859;28;20412;-73
2024/03/03 10:08:41;;;;;;;45.07;22.37;;;12.00;69.90;;;;;;5012101;28;20428;-71
2024/03/03 10:11:12;;;;;;;45.90;21.60;;;11.70;69.40;;;;;;5009181;28;20499;-72
2024/03/03 10:13:44;;;;;;;42.70;23.10;;;11.90;69.70;;;;;;5011752;28;20476;-71
2024/03/03 10:16:16;;;;;;;43.30;21.50;;;12.00;69.20;;;;;;5011690;28;20431;-73
2024/03/03 10:18:42;;;;;;;39.53;19.90;;;11.90;69.20;;;;;;5026664;28;20440;-71
2024/03/03 10:21:12;;;;;;;43.20;19.97;;;12.00;69.10;;;;;;5009589;28;20448;-71
2024/03/03 10:23:38;;;;;;;39.20;20.70;;;12.00;68.80;;;;;;5011020;28;20488;-72
2024/03/03 10:26:04;;;;;;;41.33;21.93;;;12.00;68.50;;;;;;5011552;28;20508;-71
2024/03/03 10:28:30;;;;;;;40.47;20.30;;;11.90;68.50;;;;;;5011474;28;20417;-73
2024/03/03 10:31:18;;;;;;;40.43;19.90;;;12.00;69.10;;;;;;5008788;28;20473;-71
2024/03/03 10:33:54;;;;;;;43.93;21.10;;;12.10;68.30;;;;;;5011246;28;21007;-72
2024/03/03 10:36:21;;;;;;;36.30;17.07;;;12.10;68.00;;;;;;5011560;28;20432;-71
2024/03/03 10:38:51;;;;;;;37.80;18.70;;;12.20;68.30;;;;;;5015301;28;20827;-71
2024/03/03 10:41:16;;;;;;;41.80;19.17;;;12.40;68.00;;;;;;5007773;28;20452;-72
2024/03/03 10:43:42;;;;;;;31.57;16.70;;;12.30;67.60;;;;;;5011306;28;21925;-71
2024/03/03 10:46:08;;;;;;;35.63;17.50;;;12.30;67.50;;;;;;5011880;28;20182;-71
2024/03/03 10:48:34;;;;;;;38.10;18.83;;;12.60;67.50;;;;;;5011715;28;20213;-72
2024/03/03 10:50:59;;;;;;;30.47;16.17;;;12.60;66.70;;;;;;5008396;28;20515;-72
2024/03/03 10:53:26;;;;;;;31.30;17.70;;;12.60;67.00;;;;;;5011068;28;20636;-70
2024/03/03 10:55:54;;;;;;;31.20;17.37;;;12.90;66.90;;;;;;5011142;28;20261;-71
2024/03/03 10:58:21;;;;;;;34.80;17.27;;;13.00;65.80;;;;;;5011573;28;20421;-70
2024/03/03 11:00:50;;;;;;;30.10;16.07;;;13.10;65.80;;;;;;5008849;28;20451;-74
2024/03/03 11:03:16;;;;;;;31.10;16.70;;;13.30;65.40;;;;;;5011806;28;20425;-72
2024/03/03 11:05:42;;;;;;;34.90;17.80;;;13.80;64.80;;;;;;5011881;28;20479;-74
2024/03/03 11:08:11;;;;;;;29.60;16.73;;;14.00;63.80;;;;;;5012681;28;20182;-70
2024/03/03 11:10:37;;;;;;;30.80;17.00;;;14.10;63.40;;;;;;5013137;28;20782;-73
2024/03/03 11:13:04;;;;;;;36.37;18.37;;;14.00;63.40;;;;;;5012350;28;20465;-72
2024/03/03 11:15:34;;;;;;;28.90;16.03;;;13.60;63.70;;;;;;5016936;28;20217;-71
2024/03/03 11:18:03;;;;;;;24.17;14.40;;;14.10;63.90;;;;;;5016501;28;20476;-71
2024/03/03 11:20:37;;;;;;;30.67;16.50;;;14.60;63.50;;;;;;5009080;28;20432;-71
2024/03/03 11:23:25;;;;;;;28.07;14.73;;;14.90;62.80;;;;;;5007465;28;20439;-72
2024/03/03 11:26:03;;;;;;;28.60;16.33;;;15.10;62.60;;;;;;5010731;28;20421;-71
2024/03/03 11:28:33;;;;;;;29.67;16.60;;;15.20;62.80;;;;;;5008979;28;20916;-71
2024/03/03 11:30:58;;;;;;;29.23;14.87;;;14.60;62.90;;;;;;5002553;28;20446;-72
2024/03/03 11:33:26;;;;;;;29.43;14.77;;;14.10;64.20;;;;;;5010500;28;20487;-72
2024/03/03 11:35:52;;;;;;;29.23;14.50;;;14.20;64.50;;;;;;5003809;28;20248;-70
2024/03/03 11:38:20;;;;;;;26.90;14.17;;;14.50;64.50;;;;;;5010920;28;20428;-73
2024/03/03 11:40:46;;;;;;;26.57;14.40;;;14.50;64.40;;;;;;5007292;28;20834;-69
2024/03/03 11:43:11;;;;;;;28.73;14.70;;;14.50;63.90;;;;;;5010089;28;20421;-71
2024/03/03 11:45:44;;;;;;;24.27;13.70;;;14.50;64.40;;;;;;5010154;28;20183;-72
2024/03/03 11:48:12;;;;;;;29.03;15.50;;;14.50;64.10;;;;;;5010765;28;20253;-70
2024/03/03 11:50:37;;;;;;;27.07;13.87;;;14.60;63.90;;;;;;5006980;28;20531;-71
2024/03/03 11:53:03;;;;;;;21.50;13.73;;;14.50;64.50;;;;;;5009601;28;20466;-70
2024/03/03 11:55:36;;;;;;;22.53;12.30;;;14.50;64.10;;;;;;5010420;28;20186;-73
2024/03/03 11:58:04;;;;;;;21.80;12.77;;;14.40;64.10;;;;;;5010870;28;20193;-73
2024/03/03 12:00:30;;;;;;;24.53;12.13;;;14.40;64.20;;;;;;5008258;28;20511;-71
2024/03/03 12:02:58;;;;;;;16.77;10.53;;;14.50;64.40;;;;;;5011394;28;20433;-71
2024/03/03 12:05:25;;;;;;;24.00;13.00;;;14.90;63.80;;;;;;5010417;28;20412;-72
2024/03/03 12:07:52;;;;;;;20.83;11.47;;;14.70;63.40;;;;;;5011549;28;20577;-71
2024/03/03 12:10:40;;;;;;;19.20;11.20;;;14.90;63.50;;;;;;5010866;28;20435;-70
2024/03/03 12:13:07;;;;;;;24.37;13.87;;;15.20;63.10;;;;;;5005797;28;20501;-71
2024/03/03 12:15:32;;;;;;;21.20;12.40;;;15.40;62.30;;;;;;5011223;28;20475;-73
2024/03/03 12:17:59;;;;;;;22.00;12.13;;;15.20;62.30;;;;;;5011969;28;20483;-73
2024/03/03 12:20:28;;;;;;;18.93;12.50;;;15.30;62.30;;;;;;5009985;28;20186;-70
2024/03/03 12:22:54;;;;;;;20.37;11.53;;;15.40;62.50;;;;;;5011867;28;20428;-71
2024/03/03 12:25:22;;;;;;;21.20;12.50;;;15.70;62.50;;;;;;5012211;28;20428;-69
2024/03/03 12:27:50;;;;;;;24.03;12.93;;;16.00;61.30;;;;;;5012075;28;20527;-71
2024/03/03 12:30:32;;;;;;;21.43;12.60;;;16.00;61.20;;;;;;5009863;28;20463;-71
2024/03/03 12:33:00;;;;;;;17.47;11.57;;;15.80;61.60;;;;;;5005122;28;20475;-71